Main page
METAR-TAF:

METAR-TAF

Airports :

Shahjalal International Airport

Dhaka, Bangladesh

latitude: 23-50-34N, longitude: 090-24-02E, elevation: 8 m

Current weather observation

The report was made 44 minutes ago, at 11:00 UTC
Wind 5 kt from the West
Temperature 28°C
Humidity 48%
Pressure 1010 hPa
Visibility: 4000 m
haze

METAR: VGHS 031100Z 28005KT 4000 HZ NSC 28/16 Q1010 NOSIG

Time: 17:44 (11:44 UTC)

Forecast

The report was made 44 minutes ago, at 11:00 UTC
Forecast valid from 03 at 12 UTC to 04 at 18 UTC
Visibility: 3500 m
haze
Becoming
from 03 at 22 UTC to 03 at 24 UTC
Wind kt from the North
Visibility: 2500 m
mist
Becoming
from 04 at 06 UTC to 04 at 08 UTC
Wind 5 kt from the West/Northwest
Visibility: 4000 m
haze

TAF: VGHS 031100Z 0312/0418 3006KT 3500 HZ NSC BECMG 0322/0324 00000KT 2500 BR NSC BECMG 0406/0408 29005KT 4000 HZ NSC

Weather observations and forecasts of more than 4000 airports (METAR and TAF reports).

The available stations are represented by yellow and red dots on the map.

Hover mouse over dot to see the name of the station.

Then click to see weather observations and forecasts.

To change the map : click on the green buttons with a black cross to zoom in, on the green button with a dash to zoom out, or on the green arrows for adjacent maps.


METAR-TAF: